Time;durP1;ratioP1;P1;durP2;ratioP2;P2;SDS_P1;SDS_P2;PMS_P1;PMS_P2;Temp;Humidity;BMP_temperature;BMP_pressure;BME280_temperature;BME280_humidity;BME280_pressure;Samples;Min_cycle;Max_cycle;Signal;HPM_P1;HPM_P2
2022/02/09 00:09:01;;;;;;;6.30;4.00;;;9.60;99.90;;;;;;5045684;28;20471;-72
2022/02/09 00:11:31;;;;;;;9.47;3.73;;;9.70;99.90;;;;;;5028736;28;20182;-73
2022/02/09 00:14:05;;;;;;;5.87;3.53;;;9.60;99.90;;;;;;5047057;28;20417;-72
2022/02/09 00:17:08;;;;;;;6.53;3.97;;;9.60;99.90;;;;;;5046721;28;20530;-74
2022/02/09 00:35:47;;;;;;;8.70;3.90;;;9.70;99.90;;;;;;5044222;28;20479;-74
2022/02/09 00:58:52;;;;;;;4.93;3.40;;;10.00;99.90;;;;;;5044175;28;20527;-74
2022/02/09 01:40:14;;;;;;;3.90;3.10;;;9.60;99.90;;;;;;5047886;28;20524;-72
2022/02/09 01:56:09;;;;;;;7.63;3.33;;;9.60;99.90;;;;;;5047506;28;20473;-72
2022/02/09 01:58:35;;;;;;;5.93;3.63;;;9.50;99.90;;;;;;5029438;28;20429;-73
2022/02/09 02:01:01;;;;;;;6.27;3.63;;;9.60;99.90;;;;;;5047702;28;20196;-71
2022/02/09 02:03:27;;;;;;;5.77;3.13;;;9.50;99.90;;;;;;5047474;28;20183;-71
2022/02/09 02:05:55;;;;;;;6.07;3.03;;;9.50;99.90;;;;;;5047095;28;20205;-71
2022/02/09 02:08:22;;;;;;;10.07;3.57;;;9.50;99.90;;;;;;5047405;28;20467;-70
2022/02/09 02:13:59;;;;;;;4.77;3.17;;;9.70;99.90;;;;;;5048005;28;20413;-73
2022/02/09 02:16:41;;;;;;;3.50;2.73;;;9.70;99.90;;;;;;5047203;28;20456;-72
2022/02/09 02:19:34;;;;;;;6.73;3.40;;;9.70;99.90;;;;;;5047735;28;20400;-72
2022/02/09 02:27:53;;;;;;;4.57;3.33;;;9.80;99.90;;;;;;5047163;28;20954;-74
2022/02/09 02:33:00;;;;;;;5.30;3.13;;;9.90;99.90;;;;;;5046851;28;20417;-74
2022/02/09 03:17:35;;;;;;;4.37;3.07;;;9.50;99.90;;;;;;5047828;28;20977;-73
2022/02/09 03:20:23;;;;;;;3.80;2.73;;;9.70;99.90;;;;;;5048816;28;20406;-73
2022/02/09 03:22:56;;;;;;;3.33;2.30;;;9.70;99.90;;;;;;5049239;28;20905;-73
2022/02/09 03:31:13;;;;;;;2.87;2.67;;;9.80;99.90;;;;;;5048006;28;20988;-73
2022/02/09 03:57:45;;;;;;;3.60;2.27;;;9.90;99.90;;;;;;5045629;28;20789;-73
2022/02/09 04:00:19;;;;;;;3.33;2.13;;;10.00;99.90;;;;;;5044623;28;20972;-73
2022/02/09 04:02:54;;;;;;;2.83;1.90;;;10.00;99.90;;;;;;5044748;28;20437;-71
2022/02/09 04:05:20;;;;;;;4.90;2.40;;;10.00;99.90;;;;;;5044869;28;20432;-73
2022/02/09 04:07:47;;;;;;;5.43;2.23;;;10.00;99.90;;;;;;5044880;28;20436;-71
2022/02/09 04:10:19;;;;;;;1.90;1.70;;;9.90;99.90;;;;;;5045486;28;20408;-73
2022/02/09 04:13:12;;;;;;;3.10;2.00;;;10.00;99.90;;;;;;5045317;28;20413;-72
2022/02/09 04:15:51;;;;;;;2.13;1.80;;;9.90;99.90;;;;;;5044978;28;20587;-73
2022/02/09 04:38:03;;;;;;;2.60;2.00;;;9.90;99.90;;;;;;5039366;28;20468;-74
2022/02/09 04:46:49;;;;;;;3.57;2.00;;;9.80;99.90;;;;;;5044997;28;20945;-74
2022/02/09 04:51:25;;;;;;;4.37;2.03;;;9.90;99.90;;;;;;5044980;28;20414;-73
2022/02/09 04:59:02;;;;;;;4.33;1.90;;;9.70;99.90;;;;;;5044928;28;20171;-73
2022/02/09 05:02:02;;;;;;;3.63;2.00;;;9.60;99.90;;;;;;5044974;28;20393;-74
2022/02/09 05:25:48;;;;;;;3.83;1.90;;;9.60;99.90;;;;;;5051942;28;20433;-72
2022/02/09 05:28:19;;;;;;;6.37;2.20;;;9.60;99.90;;;;;;5040333;28;20439;-73
2022/02/09 05:30:51;;;;;;;3.93;1.97;;;9.50;99.90;;;;;;5056870;28;20431;-73
2022/02/09 05:33:17;;;;;;;2.77;2.43;;;9.50;99.90;;;;;;5059183;28;20409;-74
2022/02/09 05:35:43;;;;;;;3.33;2.20;;;9.60;99.90;;;;;;5058263;28;20532;-74
2022/02/09 05:38:09;;;;;;;3.13;2.63;;;9.60;99.90;;;;;;5057056;28;20212;-73
2022/02/09 05:40:35;;;;;;;4.20;2.03;;;9.60;99.90;;;;;;5059492;28;20432;-73
2022/02/09 05:43:01;;;;;;;2.57;2.00;;;9.50;99.90;;;;;;5051630;28;20422;-72
2022/02/09 05:45:36;;;;;;;4.23;2.53;;;9.60;99.90;;;;;;5045204;28;20195;-70
2022/02/09 05:51:00;;;;;;;3.80;2.87;;;9.70;99.90;;;;;;5044008;28;20517;-72
2022/02/09 05:53:38;;;;;;;3.90;2.77;;;9.60;99.90;;;;;;5044426;28;20420;-70
2022/02/09 05:56:20;;;;;;;4.70;2.40;;;9.60;99.90;;;;;;5044148;28;20584;-74
2022/02/09 05:58:49;;;;;;;4.83;2.57;;;9.60;99.90;;;;;;5044690;28;20500;-72
2022/02/09 06:01:15;;;;;;;5.23;3.17;;;9.60;99.90;;;;;;5044575;28;20825;-73
2022/02/09 06:03:41;;;;;;;3.43;2.57;;;9.50;99.90;;;;;;5044397;28;20405;-74
2022/02/09 06:06:07;;;;;;;4.63;3.00;;;9.40;99.90;;;;;;5044814;28;20191;-72
2022/02/09 06:08:33;;;;;;;6.70;3.67;;;9.30;99.90;;;;;;5026223;28;20424;-73
2022/02/09 06:21:41;;;;;;;6.90;4.70;;;9.70;99.90;;;;;;5058307;28;20390;-73
2022/02/09 06:24:07;;;;;;;4.87;3.60;;;9.80;99.90;;;;;;5058190;28;20802;-71
2022/02/09 06:26:33;;;;;;;4.27;3.40;;;9.80;99.90;;;;;;5061754;28;20187;-72
2022/02/09 06:28:58;;;;;;;4.80;3.87;;;9.80;99.90;;;;;;5056909;28;20240;-72
2022/02/09 06:31:24;;;;;;;4.10;3.70;;;9.80;99.90;;;;;;5054914;28;20190;-73
2022/02/09 06:33:50;;;;;;;8.00;3.57;;;9.80;99.90;;;;;;5055350;28;20183;-72
2022/02/09 06:36:21;;;;;;;5.63;3.47;;;9.90;99.90;;;;;;5036063;28;20595;-73
2022/02/09 06:38:47;;;;;;;4.10;3.13;;;9.90;99.90;;;;;;5047271;28;20906;-70
2022/02/09 06:41:12;;;;;;;3.50;2.83;;;9.90;99.90;;;;;;5049230;28;20465;-72
2022/02/09 06:43:38;;;;;;;4.27;3.00;;;9.80;99.90;;;;;;5047253;28;20738;-70
2022/02/09 06:46:04;;;;;;;6.20;2.73;;;9.80;99.90;;;;;;5047039;28;20201;-73
2022/02/09 06:48:31;;;;;;;8.40;3.70;;;9.90;99.90;;;;;;5046972;28;20185;-71
2022/02/09 06:50:58;;;;;;;4.63;4.20;;;9.80;99.90;;;;;;5028977;28;20877;-73
2022/02/09 06:55:54;;;;;;;4.43;3.20;;;10.00;99.90;;;;;;5046910;28;21031;-71
2022/02/09 06:58:31;;;;;;;2.93;2.70;;;10.10;99.90;;;;;;5047193;28;20195;-71
2022/02/09 07:00:57;;;;;;;4.80;2.47;;;10.10;99.90;;;;;;5045669;28;20413;-72
2022/02/09 07:03:23;;;;;;;4.53;3.10;;;10.00;99.90;;;;;;5046981;28;20405;-72
2022/02/09 07:05:51;;;;;;;3.90;2.90;;;9.80;99.90;;;;;;5046923;28;20444;-73
2022/02/09 07:08:18;;;;;;;4.90;2.73;;;9.70;99.90;;;;;;5046992;28;20178;-72
2022/02/09 07:10:44;;;;;;;4.60;2.90;;;9.50;99.90;;;;;;5045898;28;20468;-72
2022/02/09 07:13:09;;;;;;;4.20;2.90;;;9.40;99.90;;;;;;5046517;28;20433;-71
2022/02/09 07:15:42;;;;;;;5.83;3.10;;;9.30;99.90;;;;;;5046403;28;20555;-71
2022/02/09 07:18:11;;;;;;;5.30;3.20;;;9.20;99.90;;;;;;5027936;28;20506;-72
2022/02/09 07:23:22;;;;;;;4.93;3.00;;;9.30;99.90;;;;;;5045743;28;21245;-71
2022/02/09 07:26:01;;;;;;;4.30;3.10;;;9.10;99.90;;;;;;5046221;28;20540;-72
2022/02/09 07:28:26;;;;;;;3.23;2.63;;;8.90;99.90;;;;;;5028258;28;20463;-72
2022/02/09 07:30:52;;;;;;;7.30;3.30;;;8.70;99.90;;;;;;5046218;28;20460;-71
2022/02/09 07:33:18;;;;;;;5.57;2.90;;;8.60;99.90;;;;;;5046308;28;20205;-70
2022/02/09 07:35:43;;;;;;;3.23;2.70;;;8.60;99.90;;;;;;5044797;28;20233;-71
2022/02/09 07:38:09;;;;;;;8.80;3.57;;;8.50;99.90;;;;;;5045562;28;20387;-72
2022/02/09 07:40:35;;;;;;;3.50;3.20;;;8.50;99.90;;;;;;5027441;28;20193;-73
2022/02/09 07:43:09;;;;;;;5.73;3.63;;;8.50;99.90;;;;;;5045589;28;20184;-73
2022/02/09 07:51:12;;;;;;;7.73;6.40;;;8.20;99.90;;;;;;5045991;28;21476;-72
2022/02/09 07:56:42;;;;;;;6.83;3.67;;;8.20;99.90;;;;;;4983190;28;20526;-72
2022/02/09 07:59:10;;;;;;;5.70;4.27;;;8.30;99.90;;;;;;5020541;28;20836;-73
2022/02/09 08:01:37;;;;;;;6.20;3.90;;;8.30;99.90;;;;;;5045826;28;20408;-72
2022/02/09 08:04:03;;;;;;;6.63;3.80;;;8.40;99.90;;;;;;5045806;28;20424;-71
2022/02/09 08:06:29;;;;;;;7.13;3.13;;;8.60;99.90;;;;;;5045509;28;20440;-71
2022/02/09 08:08:59;;;;;;;6.47;3.67;;;8.60;99.90;;;;;;5027184;28;20435;-71
2022/02/09 08:11:32;;;;;;;5.47;3.23;;;8.70;99.90;;;;;;5045917;28;20904;-71
2022/02/09 08:30:47;;;;;;;4.10;3.10;;;9.10;99.90;;;;;;5045712;28;20407;-71
2022/02/09 08:33:19;;;;;;;6.13;3.50;;;9.20;99.90;;;;;;5045677;28;20413;-70
2022/02/09 08:35:51;;;;;;;4.70;3.10;;;9.20;99.90;;;;;;5045458;28;20464;-71
2022/02/09 08:38:18;;;;;;;5.63;4.23;;;9.30;99.90;;;;;;5045179;28;20459;-72
2022/02/09 08:40:45;;;;;;;7.13;3.93;;;9.30;99.90;;;;;;5027075;28;20801;-71
2022/02/09 08:43:11;;;;;;;8.20;3.87;;;9.40;99.90;;;;;;5045078;28;20606;-71
2022/02/09 08:45:41;;;;;;;7.80;4.27;;;9.40;99.90;;;;;;5045629;28;20447;-72
2022/02/09 08:48:08;;;;;;;7.13;4.50;;;9.50;99.90;;;;;;5027831;28;20797;-71
2022/02/09 08:50:34;;;;;;;6.70;4.30;;;9.50;99.90;;;;;;5045467;28;20432;-71
2022/02/09 08:52:59;;;;;;;4.60;3.10;;;9.60;99.90;;;;;;5045106;28;20449;-74
2022/02/09 08:55:25;;;;;;;6.07;3.93;;;9.70;99.90;;;;;;5044994;28;20242;-73
2022/02/09 08:57:51;;;;;;;5.40;3.87;;;9.60;99.90;;;;;;5045349;28;20282;-73
2022/02/09 09:00:29;;;;;;;5.30;4.10;;;9.70;99.90;;;;;;5044980;28;20508;-72
2022/02/09 09:03:45;;;;;;;7.00;3.60;;;9.80;99.90;;;;;;5045459;28;20608;-72
2022/02/09 10:03:10;;;;;;;8.20;3.00;;;10.40;99.90;;;;;;5016995;28;20405;-73
2022/02/09 10:34:26;;;;;;;5.87;3.10;;;11.40;99.90;;;;;;5046964;28;20485;-74
2022/02/09 10:37:01;;;;;;;4.67;2.23;;;11.50;99.90;;;;;;5047267;28;21302;-72
2022/02/09 10:39:58;;;;;;;8.37;2.93;;;11.50;99.90;;;;;;5029044;28;20415;-71
2022/02/09 10:42:43;;;;;;;3.00;2.00;;;11.70;99.90;;;;;;5047015;28;20405;-73
2022/02/09 10:45:32;;;;;;;10.80;3.70;;;11.90;99.90;;;;;;5028406;28;20954;-69
2022/02/09 10:47:59;;;;;;;4.73;2.57;;;12.00;99.90;;;;;;5046719;28;20500;-72
2022/02/09 10:50:34;;;;;;;5.20;2.90;;;12.00;99.90;;;;;;5028549;28;20422;-70
2022/02/09 10:53:03;;;;;;;4.97;2.87;;;12.00;99.90;;;;;;5046989;28;20440;-70
2022/02/09 10:55:39;;;;;;;16.20;4.17;;;12.10;99.90;;;;;;5029117;28;20455;-72
2022/02/09 10:58:15;;;;;;;5.13;3.07;;;12.30;99.90;;;;;;5046592;28;20854;-73
2022/02/09 11:00:44;;;;;;;7.43;2.97;;;12.20;99.90;;;;;;5046520;28;20959;-71
2022/02/09 11:03:14;;;;;;;6.60;2.80;;;12.10;99.90;;;;;;5047236;28;20970;-75
2022/02/09 11:05:43;;;;;;;5.90;2.80;;;12.10;99.90;;;;;;5046697;28;20477;-71
2022/02/09 11:08:09;;;;;;;3.57;2.80;;;12.20;99.90;;;;;;5045808;28;20419;-69
2022/02/09 11:10:35;;;;;;;18.17;4.47;;;12.30;99.90;;;;;;5046229;28;20541;-71
2022/02/09 11:13:03;;;;;;;6.83;2.87;;;12.20;99.90;;;;;;5046773;28;20305;-71
2022/02/09 11:15:28;;;;;;;3.43;2.60;;;12.50;99.90;;;;;;5028500;28;20257;-70
2022/02/09 11:17:54;;;;;;;10.20;2.53;;;13.10;99.90;;;;;;5045954;28;20972;-72
2022/02/09 11:20:27;;;;;;;6.77;3.20;;;15.30;99.90;;;;;;5046100;28;20179;-71
2022/02/09 11:22:52;;;;;;;12.63;3.40;;;17.30;99.20;;;;;;5046924;28;20975;-70
2022/02/09 11:25:32;;;;;;;4.80;2.30;;;18.60;96.30;;;;;;5045893;28;20437;-72
2022/02/09 11:28:24;;;;;;;4.50;2.00;;;20.10;94.30;;;;;;5046191;28;20171;-73
2022/02/09 11:31:13;;;;;;;3.47;2.40;;;20.90;90.80;;;;;;5046074;28;20766;-73
2022/02/09 11:33:57;;;;;;;6.73;2.60;;;21.50;87.90;;;;;;5046010;28;20998;-71
2022/02/09 11:36:42;;;;;;;5.63;2.57;;;21.90;86.20;;;;;;5045547;28;20452;-71
2022/02/09 11:39:18;;;;;;;4.83;2.43;;;23.20;80.50;;;;;;5045693;28;20412;-75
2022/02/09 11:42:10;;;;;;;4.33;2.13;;;22.70;79.50;;;;;;5046606;28;20400;-71
2022/02/09 11:45:24;;;;;;;3.60;2.20;;;23.20;78.10;;;;;;5027911;28;20468;-72
2022/02/09 11:48:09;;;;;;;10.07;2.60;;;22.70;78.70;;;;;;5041593;28;20427;-73
2022/02/09 11:51:19;;;;;;;8.23;2.90;;;24.10;76.60;;;;;;5045539;28;20447;-75
2022/02/09 11:57:00;;;;;;;5.37;2.10;;;25.40;71.20;;;;;;5045186;28;20420;-73
2022/02/09 12:11:11;;;;;;;4.43;1.70;;;25.40;66.50;;;;;;5045620;28;20420;-73
2022/02/09 12:13:58;;;;;;;2.57;1.87;;;25.50;65.70;;;;;;5027385;28;20421;-73
2022/02/09 12:16:42;;;;;;;3.70;2.43;;;23.90;68.90;;;;;;5044623;28;20769;-72
2022/02/09 12:19:23;;;;;;;10.87;3.47;;;24.70;68.30;;;;;;5044991;28;20508;-72
2022/02/09 12:21:53;;;;;;;3.70;3.07;;;25.80;65.30;;;;;;5044303;28;20408;-73
2022/02/09 12:24:26;;;;;;;5.17;2.70;;;25.80;63.80;;;;;;5026085;28;20445;-72
2022/02/09 12:27:09;;;;;;;9.87;3.23;;;23.80;66.60;;;;;;5044699;28;20989;-74
2022/02/09 12:29:40;;;;;;;4.80;2.73;;;22.90;68.70;;;;;;5044723;28;20421;-73
2022/02/09 12:32:15;;;;;;;10.60;3.87;;;23.70;67.70;;;;;;5045074;28;20413;-72
2022/02/09 12:35:01;;;;;;;4.80;2.07;;;23.20;68.30;;;;;;5043702;28;20468;-75
2022/02/09 12:37:30;;;;;;;9.80;3.57;;;23.60;67.40;;;;;;5044381;28;20449;-74
2022/02/09 12:39:58;;;;;;;8.50;3.30;;;23.60;66.70;;;;;;5044365;28;20401;-75
2022/02/09 12:42:34;;;;;;;7.10;3.10;;;24.00;67.10;;;;;;5044439;28;21055;-73
2022/02/09 12:45:07;;;;;;;4.43;3.10;;;24.10;67.20;;;;;;5044124;28;20463;-74
2022/02/09 12:47:44;;;;;;;4.80;2.60;;;25.00;65.30;;;;;;5043246;28;20429;-75
2022/02/09 12:50:17;;;;;;;7.07;2.63;;;25.00;64.70;;;;;;5044094;28;20416;-75
2022/02/09 12:52:44;;;;;;;6.63;2.33;;;26.20;63.00;;;;;;5044047;28;21391;-75
2022/02/09 12:55:16;;;;;;;3.13;2.13;;;25.80;62.70;;;;;;5026321;28;20441;-74
2022/02/09 12:57:52;;;;;;;4.37;2.33;;;25.60;61.80;;;;;;5044201;28;20506;-74
2022/02/09 13:00:23;;;;;;;3.50;2.57;;;23.50;65.70;;;;;;5044303;28;20397;-75
2022/02/09 13:02:50;;;;;;;4.20;2.37;;;22.70;68.10;;;;;;5044360;28;20447;-74
2022/02/09 13:05:16;;;;;;;9.60;2.63;;;22.80;68.20;;;;;;5043892;28;20483;-75
2022/02/09 13:07:51;;;;;;;8.60;2.97;;;22.10;69.70;;;;;;5043797;28;20825;-74
2022/02/09 13:10:23;;;;;;;4.47;2.27;;;22.30;69.50;;;;;;5024993;28;20170;-75
2022/02/09 13:12:49;;;;;;;4.23;2.53;;;21.80;70.40;;;;;;5044362;28;20836;-77
2022/02/09 13:15:27;;;;;;;3.67;1.87;;;22.10;71.00;;;;;;5044050;28;20437;-72
2022/02/09 13:52:31;;;;;;;6.43;2.73;;;25.00;64.40;;;;;;5044418;28;20404;-73
2022/02/09 14:10:58;;;;;;;6.63;2.73;;;27.70;57.90;;;;;;5043579;28;20412;-73
2022/02/09 14:16:27;;;;;;;4.13;1.87;;;21.70;67.10;;;;;;5045099;28;20516;-73
2022/02/09 14:54:37;;;;;;;3.10;2.30;;;15.60;91.60;;;;;;5057050;28;20800;-76
2022/02/09 14:59:09;;;;;;;4.10;2.50;;;15.40;92.40;;;;;;5056196;28;20419;-77
2022/02/09 15:01:46;;;;;;;7.27;1.93;;;15.50;92.60;;;;;;5055404;28;20411;-76
2022/02/09 15:04:36;;;;;;;4.20;2.50;;;15.30;93.00;;;;;;5050458;28;20411;-78
2022/02/09 15:07:48;;;;;;;3.63;2.23;;;15.30;93.30;;;;;;5047837;28;20610;-77
2022/02/09 15:10:01;;;;;;;3.57;2.40;;;15.10;93.40;;;;;;5038527;28;20419;-77
2022/02/09 15:12:43;;;;;;;3.47;2.23;;;15.10;93.50;;;;;;5029253;28;20422;-76
2022/02/09 15:15:26;;;;;;;2.10;1.80;;;15.10;94.20;;;;;;5029420;28;20538;-75
2022/02/09 15:23:02;;;;;;;2.03;1.80;;;15.10;94.60;;;;;;5047266;28;20484;-71
2022/02/09 15:25:33;;;;;;;2.60;1.90;;;15.30;94.40;;;;;;5046372;28;20188;-74
2022/02/09 15:28:00;;;;;;;3.63;2.10;;;15.20;95.60;;;;;;5029105;28;20186;-75
2022/02/09 15:30:29;;;;;;;3.83;2.50;;;14.70;96.50;;;;;;5046561;28;20504;-74
2022/02/09 15:32:57;;;;;;;6.93;3.50;;;14.50;96.60;;;;;;5046343;28;20823;-76
2022/02/09 15:35:31;;;;;;;4.13;2.33;;;14.60;97.50;;;;;;5046276;28;20517;-74
2022/02/09 15:38:05;;;;;;;5.03;2.80;;;14.60;98.00;;;;;;5029881;28;20455;-73
2022/02/09 15:56:56;;;;;;;5.17;2.73;;;13.60;99.90;;;;;;5048784;28;20434;-73
2022/02/09 16:10:20;;;;;;;4.43;2.40;;;12.60;99.90;;;;;;5049664;28;20404;-73
2022/02/09 16:45:19;;;;;;;5.53;3.90;;;11.20;99.90;;;;;;4990932;28;20479;-74
2022/02/09 16:50:26;;;;;;;5.33;4.23;;;11.00;99.90;;;;;;5054072;28;20164;-74
2022/02/09 16:53:09;;;;;;;6.90;3.50;;;10.90;99.90;;;;;;5052166;28;20422;-74
2022/02/09 17:19:37;;;;;;;5.70;4.60;;;10.10;99.90;;;;;;5044600;28;20443;-72
2022/02/09 17:22:04;;;;;;;8.67;4.80;;;9.90;99.90;;;;;;5044879;28;20417;-71
2022/02/09 17:24:30;;;;;;;7.70;4.27;;;9.90;99.90;;;;;;5025539;28;20203;-73
2022/02/09 17:26:56;;;;;;;5.03;3.83;;;10.00;99.90;;;;;;5044747;28;20432;-70
2022/02/09 17:29:31;;;;;;;5.70;3.40;;;10.00;99.90;;;;;;5044425;28;20174;-71
2022/02/09 17:32:04;;;;;;;5.43;3.17;;;9.90;99.90;;;;;;5045082;28;20400;-72
2022/02/09 17:34:46;;;;;;;4.27;3.60;;;9.90;99.90;;;;;;5044768;28;20449;-72
2022/02/09 17:53:30;;;;;;;5.73;3.70;;;9.70;99.90;;;;;;5044332;28;20397;-73
2022/02/09 17:58:31;;;;;;;9.50;7.13;;;9.70;99.90;;;;;;5044272;28;20879;-72
2022/02/09 18:00:59;;;;;;;9.63;6.50;;;9.70;99.90;;;;;;5082904;22;20484;-75
2022/02/09 18:03:25;;;;;;;8.43;5.00;;;9.60;99.90;;;;;;5042409;28;20446;-75
2022/02/09 18:05:54;;;;;;;5.53;4.70;;;9.50;99.90;;;;;;5022671;28;20464;-74
2022/02/09 18:13:37;;;;;;;7.40;6.57;;;9.40;99.90;;;;;;5043237;28;20428;-75
2022/02/09 18:29:44;;;;;;;8.20;6.93;;;9.20;99.90;;;;;;5046799;28;20476;-75
2022/02/09 18:32:26;;;;;;;6.87;6.17;;;9.10;99.90;;;;;;5047146;28;20435;-76
2022/02/09 18:41:13;;;;;;;8.40;4.37;;;9.10;99.90;;;;;;5046208;28;20205;-74
2022/02/09 18:45:46;;;;;;;8.07;4.40;;;9.00;99.90;;;;;;5046595;28;20970;-74
2022/02/09 18:48:32;;;;;;;6.20;4.83;;;9.00;99.90;;;;;;5046964;28;20465;-74
2022/02/09 19:04:39;;;;;;;7.90;5.63;;;8.70;99.90;;;;;;5045986;28;20587;-73
2022/02/09 19:20:30;;;;;;;7.90;6.07;;;8.50;99.90;;;;;;5045631;28;20430;-73
2022/02/09 19:31:46;;;;;;;13.13;11.70;;;8.40;99.90;;;;;;5045076;28;20442;-73
2022/02/09 19:50:14;;;;;;;10.93;9.97;;;8.10;99.90;;;;;;4944670;28;20213;-74
2022/02/09 19:57:56;;;;;;;10.07;4.90;;;8.20;99.90;;;;;;5045407;28;20463;-74
2022/02/09 20:00:24;;;;;;;6.27;5.47;;;8.20;99.90;;;;;;5044813;28;20636;-74
2022/02/09 20:02:50;;;;;;;6.53;5.70;;;8.10;99.90;;;;;;5044931;28;20418;-74
2022/02/09 20:05:16;;;;;;;9.63;6.00;;;8.10;99.90;;;;;;5045331;28;20516;-75
2022/02/09 20:07:42;;;;;;;6.80;5.63;;;8.00;99.90;;;;;;5026848;28;20221;-74
2022/02/09 20:10:11;;;;;;;5.97;5.37;;;8.00;99.90;;;;;;5026687;28;20236;-74
2022/02/09 20:12:36;;;;;;;6.00;4.90;;;8.00;99.90;;;;;;5045048;28;20419;-72
2022/02/09 20:15:02;;;;;;;5.40;4.67;;;8.00;99.90;;;;;;5044405;28;20482;-75
2022/02/09 20:17:28;;;;;;;7.47;5.70;;;8.00;99.90;;;;;;5026990;28;20262;-74
2022/02/09 20:19:56;;;;;;;11.13;8.20;;;7.90;99.90;;;;;;5026714;28;20967;-74
2022/02/09 20:22:22;;;;;;;7.83;6.00;;;7.90;99.90;;;;;;5044465;28;20260;-74
2022/02/09 20:24:48;;;;;;;9.03;6.07;;;7.80;99.90;;;;;;5045227;28;20530;-74
2022/02/09 20:27:19;;;;;;;6.33;5.30;;;7.80;99.90;;;;;;5044992;28;20187;-74
2022/02/09 20:29:45;;;;;;;7.13;6.07;;;7.80;99.90;;;;;;5044906;28;20443;-74
2022/02/09 20:32:21;;;;;;;5.90;4.80;;;7.90;99.90;;;;;;5045042;28;20419;-75
2022/02/09 20:34:58;;;;;;;4.87;4.37;;;7.90;99.90;;;;;;5044788;28;20411;-73
2022/02/09 20:37:26;;;;;;;6.17;4.87;;;7.90;99.90;;;;;;5044464;28;20450;-75
2022/02/09 20:40:02;;;;;;;5.43;4.43;;;8.00;99.90;;;;;;5026159;28;20765;-74
2022/02/09 20:42:28;;;;;;;6.97;4.90;;;8.00;99.90;;;;;;5044384;28;20405;-74
2022/02/09 20:45:04;;;;;;;5.83;5.23;;;8.00;99.90;;;;;;5043788;28;20409;-74
2022/02/09 20:47:30;;;;;;;10.20;6.10;;;8.00;99.90;;;;;;5043968;28;20464;-74
2022/02/09 20:49:56;;;;;;;9.93;5.40;;;8.00;99.90;;;;;;5043922;28;20496;-74
2022/02/09 20:52:21;;;;;;;13.37;5.83;;;7.90;99.90;;;;;;5043824;28;20440;-74
2022/02/09 20:54:47;;;;;;;5.63;4.60;;;7.90;99.90;;;;;;5043939;28;20189;-75
2022/02/09 20:57:12;;;;;;;6.17;4.73;;;7.80;99.90;;;;;;5043328;28;20239;-74
2022/02/09 20:59:44;;;;;;;4.93;3.80;;;7.80;99.90;;;;;;5043771;28;20638;-74
2022/02/09 21:02:51;;;;;;;7.53;4.40;;;7.70;99.90;;;;;;5043697;28;20167;-74
2022/02/09 21:05:28;;;;;;;7.33;5.10;;;7.60;99.90;;;;;;5039602;28;20439;-73
2022/02/09 21:08:05;;;;;;;10.40;4.20;;;7.40;99.90;;;;;;5043070;28;20428;-73
2022/02/09 21:10:43;;;;;;;6.47;4.37;;;7.40;99.90;;;;;;5043464;28;20439;-75
2022/02/09 21:13:18;;;;;;;9.00;4.83;;;7.40;99.90;;;;;;5043418;28;20422;-74
2022/02/09 21:44:56;;;;;;;6.47;5.03;;;7.30;99.90;;;;;;5043425;28;20491;-73
2022/02/09 21:58:04;;;;;;;4.70;4.20;;;7.00;99.90;;;;;;5047188;28;20452;-72
2022/02/09 22:19:29;;;;;;;6.00;5.00;;;6.90;99.90;;;;;;5046920;28;20485;-72
2022/02/09 22:47:40;;;;;;;7.57;4.90;;;7.00;99.90;;;;;;5045569;28;20396;-71
2022/02/09 22:54:44;;;;;;;6.67;4.20;;;7.00;99.90;;;;;;5046250;28;20488;-71
2022/02/09 22:57:11;;;;;;;6.13;4.60;;;6.90;99.90;;;;;;5045907;28;20422;-72
2022/02/09 22:59:45;;;;;;;6.67;4.60;;;6.80;99.90;;;;;;5045623;28;21004;-71
2022/02/09 23:02:25;;;;;;;6.17;4.30;;;6.80;99.90;;;;;;5045869;28;20413;-72
2022/02/09 23:05:28;;;;;;;7.30;4.33;;;6.80;99.90;;;;;;5045965;28;20410;-72
2022/02/09 23:08:25;;;;;;;7.57;4.00;;;6.90;99.90;;;;;;5045530;28;20416;-72
2022/02/09 23:11:55;;;;;;;6.00;3.97;;;6.90;99.90;;;;;;5045423;28;20437;-71
2022/02/09 23:13:49;;;;;;;5.87;5.00;;;6.80;99.90;;;;;;5036235;28;20421;-72
